sensor_id;sensor_type;location;lat;lon;timestamp;P1;durP1;ratioP1;P2;durP2;ratioP2
76439;SDS011;65274;44.982;20.060;2023-04-24T00:01:37;17.48;;;12.07;;
76439;SDS011;65274;44.982;20.060;2023-04-24T00:04:04;15.82;;;12.35;;
76439;SDS011;65274;44.982;20.060;2023-04-24T00:06:32;19.15;;;12.70;;
76439;SDS011;65274;44.982;20.060;2023-04-24T00:09:01;16.23;;;11.90;;
76439;SDS011;65274;44.982;20.060;2023-04-24T00:11:28;19.77;;;11.75;;
76439;SDS011;65274;44.982;20.060;2023-04-24T00:13:54;17.92;;;12.40;;
76439;SDS011;65274;44.982;20.060;2023-04-24T00:16:20;19.23;;;12.70;;
76439;SDS011;65274;44.982;20.060;2023-04-24T00:18:46;16.30;;;11.70;;
76439;SDS011;65274;44.982;20.060;2023-04-24T00:21:17;18.80;;;11.32;;
76439;SDS011;65274;44.982;20.060;2023-04-24T00:23:43;16.05;;;10.65;;
76439;SDS011;65274;44.982;20.060;2023-04-24T00:26:10;15.48;;;10.68;;
76439;SDS011;65274;44.982;20.060;2023-04-24T00:28:36;13.35;;;10.52;;
76439;SDS011;65274;44.982;20.060;2023-04-24T00:31:02;19.02;;;11.25;;
76439;SDS011;65274;44.982;20.060;2023-04-24T00:33:28;14.65;;;10.52;;
76439;SDS011;65274;44.982;20.060;2023-04-24T00:35:54;16.67;;;10.98;;
76439;SDS011;65274;44.982;20.060;2023-04-24T00:38:20;19.00;;;11.30;;
76439;SDS011;65274;44.982;20.060;2023-04-24T00:40:47;16.20;;;11.07;;
76439;SDS011;65274;44.982;20.060;2023-04-24T00:43:14;17.08;;;11.23;;
76439;SDS011;65274;44.982;20.060;2023-04-24T00:45:40;17.38;;;11.40;;
76439;SDS011;65274;44.982;20.060;2023-04-24T00:48:07;14.32;;;10.55;;
76439;SDS011;65274;44.982;20.060;2023-04-24T00:50:35;15.40;;;11.57;;
76439;SDS011;65274;44.982;20.060;2023-04-24T00:53:01;23.65;;;13.20;;
76439;SDS011;65274;44.982;20.060;2023-04-24T00:55:27;21.98;;;13.07;;
76439;SDS011;65274;44.982;20.060;2023-04-24T00:57:53;18.02;;;11.20;;
76439;SDS011;65274;44.982;20.060;2023-04-24T01:00:20;16.60;;;11.73;;
76439;SDS011;65274;44.982;20.060;2023-04-24T01:02:46;21.83;;;11.75;;
76439;SDS011;65274;44.982;20.060;2023-04-24T01:05:13;15.68;;;10.88;;
76439;SDS011;65274;44.982;20.060;2023-04-24T01:07:40;11.80;;;9.75;;
76439;SDS011;65274;44.982;20.060;2023-04-24T01:10:09;16.95;;;10.48;;
76439;SDS011;65274;44.982;20.060;2023-04-24T01:12:35;23.52;;;11.20;;
76439;SDS011;65274;44.982;20.060;2023-04-24T01:15:02;14.63;;;9.73;;
76439;SDS011;65274;44.982;20.060;2023-04-24T01:17:29;13.10;;;10.00;;
76439;SDS011;65274;44.982;20.060;2023-04-24T01:19:56;12.57;;;9.25;;
76439;SDS011;65274;44.982;20.060;2023-04-24T01:22:22;15.00;;;10.32;;
76439;SDS011;65274;44.982;20.060;2023-04-24T01:24:48;17.50;;;11.43;;
76439;SDS011;65274;44.982;20.060;2023-04-24T01:27:14;13.10;;;10.07;;
76439;SDS011;65274;44.982;20.060;2023-04-24T01:29:40;12.68;;;9.43;;
76439;SDS011;65274;44.982;20.060;2023-04-24T01:32:07;13.05;;;10.23;;
76439;SDS011;65274;44.982;20.060;2023-04-24T01:34:33;15.32;;;10.45;;
76439;SDS011;65274;44.982;20.060;2023-04-24T01:36:59;12.98;;;10.05;;
76439;SDS011;65274;44.982;20.060;2023-04-24T01:39:26;13.18;;;9.38;;
76439;SDS011;65274;44.982;20.060;2023-04-24T01:41:53;13.25;;;9.20;;
76439;SDS011;65274;44.982;20.060;2023-04-24T01:44:20;13.68;;;8.75;;
76439;SDS011;65274;44.982;20.060;2023-04-24T01:46:46;11.52;;;9.20;;
76439;SDS011;65274;44.982;20.060;2023-04-24T01:49:12;11.30;;;8.40;;
76439;SDS011;65274;44.982;20.060;2023-04-24T01:51:38;12.70;;;8.10;;
76439;SDS011;65274;44.982;20.060;2023-04-24T01:54:04;9.50;;;8.05;;
76439;SDS011;65274;44.982;20.060;2023-04-24T01:56:31;9.55;;;8.05;;
76439;SDS011;65274;44.982;20.060;2023-04-24T01:58:59;13.93;;;7.60;;
76439;SDS011;65274;44.982;20.060;2023-04-24T02:01:25;11.05;;;7.28;;
76439;SDS011;65274;44.982;20.060;2023-04-24T02:03:51;9.13;;;7.80;;
76439;SDS011;65274;44.982;20.060;2023-04-24T02:06:17;11.80;;;8.30;;
76439;SDS011;65274;44.982;20.060;2023-04-24T02:08:43;8.40;;;6.68;;
76439;SDS011;65274;44.982;20.060;2023-04-24T02:11:09;9.77;;;7.60;;
76439;SDS011;65274;44.982;20.060;2023-04-24T02:13:36;13.32;;;8.27;;
76439;SDS011;65274;44.982;20.060;2023-04-24T02:16:02;11.98;;;8.80;;
76439;SDS011;65274;44.982;20.060;2023-04-24T02:18:28;13.48;;;9.43;;
76439;SDS011;65274;44.982;20.060;2023-04-24T02:20:54;11.43;;;8.85;;
76439;SDS011;65274;44.982;20.060;2023-04-24T02:23:20;12.30;;;8.52;;
76439;SDS011;65274;44.982;20.060;2023-04-24T02:25:46;12.02;;;8.40;;
76439;SDS011;65274;44.982;20.060;2023-04-24T02:28:12;13.95;;;9.45;;
76439;SDS011;65274;44.982;20.060;2023-04-24T02:30:38;11.32;;;8.30;;
76439;SDS011;65274;44.982;20.060;2023-04-24T02:33:04;10.90;;;9.05;;
76439;SDS011;65274;44.982;20.060;2023-04-24T02:35:31;13.10;;;10.35;;
76439;SDS011;65274;44.982;20.060;2023-04-24T02:37:57;15.48;;;10.43;;
76439;SDS011;65274;44.982;20.060;2023-04-24T02:40:23;13.55;;;9.75;;
76439;SDS011;65274;44.982;20.060;2023-04-24T02:42:49;14.93;;;9.43;;
76439;SDS011;65274;44.982;20.060;2023-04-24T02:45:15;12.25;;;8.70;;
76439;SDS011;65274;44.982;20.060;2023-04-24T02:47:41;12.02;;;9.85;;
76439;SDS011;65274;44.982;20.060;2023-04-24T02:50:07;11.63;;;8.85;;
76439;SDS011;65274;44.982;20.060;2023-04-24T02:52:33;14.15;;;9.63;;
76439;SDS011;65274;44.982;20.060;2023-04-24T02:54:59;11.95;;;9.73;;
76439;SDS011;65274;44.982;20.060;2023-04-24T02:57:25;13.00;;;8.52;;
76439;SDS011;65274;44.982;20.060;2023-04-24T02:59:51;15.25;;;10.32;;
76439;SDS011;65274;44.982;20.060;2023-04-24T03:02:17;13.10;;;9.43;;
76439;SDS011;65274;44.982;20.060;2023-04-24T03:04:45;14.65;;;9.35;;
76439;SDS011;65274;44.982;20.060;2023-04-24T03:07:13;15.18;;;10.60;;
76439;SDS011;65274;44.982;20.060;2023-04-24T03:09:40;11.90;;;9.82;;
76439;SDS011;65274;44.982;20.060;2023-04-24T03:12:06;13.75;;;9.45;;
76439;SDS011;65274;44.982;20.060;2023-04-24T03:14:32;13.07;;;9.60;;
76439;SDS011;65274;44.982;20.060;2023-04-24T03:16:58;13.52;;;9.57;;
76439;SDS011;65274;44.982;20.060;2023-04-24T03:19:24;12.50;;;9.82;;
76439;SDS011;65274;44.982;20.060;2023-04-24T03:21:50;13.98;;;9.38;;
76439;SDS011;65274;44.982;20.060;2023-04-24T03:24:16;11.95;;;9.35;;
76439;SDS011;65274;44.982;20.060;2023-04-24T03:26:42;15.82;;;10.25;;
76439;SDS011;65274;44.982;20.060;2023-04-24T03:29:09;14.38;;;9.15;;
76439;SDS011;65274;44.982;20.060;2023-04-24T03:31:35;13.15;;;8.93;;
76439;SDS011;65274;44.982;20.060;2023-04-24T03:34:01;17.08;;;8.75;;
76439;SDS011;65274;44.982;20.060;2023-04-24T03:36:27;15.35;;;9.48;;
76439;SDS011;65274;44.982;20.060;2023-04-24T03:38:53;13.00;;;8.90;;
76439;SDS011;65274;44.982;20.060;2023-04-24T03:41:19;12.20;;;9.10;;
76439;SDS011;65274;44.982;20.060;2023-04-24T03:43:45;13.07;;;8.90;;
76439;SDS011;65274;44.982;20.060;2023-04-24T03:46:11;17.85;;;10.00;;
76439;SDS011;65274;44.982;20.060;2023-04-24T03:48:37;10.55;;;9.27;;
76439;SDS011;65274;44.982;20.060;2023-04-24T03:51:03;14.93;;;8.93;;
76439;SDS011;65274;44.982;20.060;2023-04-24T03:53:29;13.80;;;10.52;;
76439;SDS011;65274;44.982;20.060;2023-04-24T03:55:55;16.65;;;10.68;;
76439;SDS011;65274;44.982;20.060;2023-04-24T03:58:21;14.20;;;9.45;;
76439;SDS011;65274;44.982;20.060;2023-04-24T04:00:47;16.40;;;9.90;;
76439;SDS011;65274;44.982;20.060;2023-04-24T04:03:14;11.23;;;7.80;;
76439;SDS011;65274;44.982;20.060;2023-04-24T04:05:41;13.23;;;9.07;;
76439;SDS011;65274;44.982;20.060;2023-04-24T04:08:07;14.32;;;9.32;;
76439;SDS011;65274;44.982;20.060;2023-04-24T04:10:33;15.32;;;9.73;;
76439;SDS011;65274;44.982;20.060;2023-04-24T04:12:59;12.32;;;9.48;;
76439;SDS011;65274;44.982;20.060;2023-04-24T04:15:25;15.63;;;10.30;;
76439;SDS011;65274;44.982;20.060;2023-04-24T04:17:51;15.90;;;11.02;;
76439;SDS011;65274;44.982;20.060;2023-04-24T04:20:18;14.18;;;10.75;;
76439;SDS011;65274;44.982;20.060;2023-04-24T04:22:44;14.88;;;10.93;;
76439;SDS011;65274;44.982;20.060;2023-04-24T04:25:10;16.40;;;10.95;;
76439;SDS011;65274;44.982;20.060;2023-04-24T04:27:36;12.77;;;10.07;;
76439;SDS011;65274;44.982;20.060;2023-04-24T04:30:02;33.33;;;11.95;;
76439;SDS011;65274;44.982;20.060;2023-04-24T04:32:33;14.40;;;10.43;;
76439;SDS011;65274;44.982;20.060;2023-04-24T04:34:59;12.90;;;10.55;;
76439;SDS011;65274;44.982;20.060;2023-04-24T04:37:32;15.55;;;10.35;;
76439;SDS011;65274;44.982;20.060;2023-04-24T04:39:59;12.95;;;9.70;;
76439;SDS011;65274;44.982;20.060;2023-04-24T04:42:25;13.48;;;9.50;;
76439;SDS011;65274;44.982;20.060;2023-04-24T04:44:52;14.02;;;8.70;;
76439;SDS011;65274;44.982;20.060;2023-04-24T04:47:19;18.30;;;9.55;;
76439;SDS011;65274;44.982;20.060;2023-04-24T04:49:49;11.38;;;7.93;;
76439;SDS011;65274;44.982;20.060;2023-04-24T04:52:18;14.10;;;8.13;;
76439;SDS011;65274;44.982;20.060;2023-04-24T04:54:45;11.75;;;8.57;;
76439;SDS011;65274;44.982;20.060;2023-04-24T04:57:11;10.07;;;8.38;;
76439;SDS011;65274;44.982;20.060;2023-04-24T04:59:37;13.95;;;8.55;;
76439;SDS011;65274;44.982;20.060;2023-04-24T05:02:03;10.68;;;7.22;;
76439;SDS011;65274;44.982;20.060;2023-04-24T05:04:29;12.48;;;8.05;;
76439;SDS011;65274;44.982;20.060;2023-04-24T05:06:56;13.52;;;8.38;;
76439;SDS011;65274;44.982;20.060;2023-04-24T05:09:22;22.48;;;9.20;;
76439;SDS011;65274;44.982;20.060;2023-04-24T05:11:48;15.27;;;9.00;;
76439;SDS011;65274;44.982;20.060;2023-04-24T05:14:14;12.10;;;9.38;;
76439;SDS011;65274;44.982;20.060;2023-04-24T05:19:08;12.77;;;8.13;;
76439;SDS011;65274;44.982;20.060;2023-04-24T05:21:35;15.75;;;9.57;;
76439;SDS011;65274;44.982;20.060;2023-04-24T05:24:02;14.10;;;9.68;;
76439;SDS011;65274;44.982;20.060;2023-04-24T05:26:28;12.00;;;8.38;;
76439;SDS011;65274;44.982;20.060;2023-04-24T05:28:54;13.10;;;8.73;;
76439;SDS011;65274;44.982;20.060;2023-04-24T05:31:20;13.32;;;8.80;;
76439;SDS011;65274;44.982;20.060;2023-04-24T05:33:46;12.82;;;8.38;;
76439;SDS011;65274;44.982;20.060;2023-04-24T05:36:12;13.93;;;8.38;;
76439;SDS011;65274;44.982;20.060;2023-04-24T05:38:38;12.25;;;9.02;;
76439;SDS011;65274;44.982;20.060;2023-04-24T05:41:04;19.73;;;8.73;;
76439;SDS011;65274;44.982;20.060;2023-04-24T05:43:30;13.20;;;7.97;;
76439;SDS011;65274;44.982;20.060;2023-04-24T05:45:56;11.02;;;8.48;;
76439;SDS011;65274;44.982;20.060;2023-04-24T05:48:22;10.05;;;7.28;;
76439;SDS011;65274;44.982;20.060;2023-04-24T05:50:49;8.27;;;6.57;;
76439;SDS011;65274;44.982;20.060;2023-04-24T05:53:15;11.90;;;7.85;;
76439;SDS011;65274;44.982;20.060;2023-04-24T05:55:42;10.32;;;8.65;;
76439;SDS011;65274;44.982;20.060;2023-04-24T05:58:08;12.95;;;8.27;;
76439;SDS011;65274;44.982;20.060;2023-04-24T06:00:34;30.20;;;8.75;;
76439;SDS011;65274;44.982;20.060;2023-04-24T06:03:01;9.73;;;7.38;;
76439;SDS011;65274;44.982;20.060;2023-04-24T06:05:28;12.55;;;8.48;;
76439;SDS011;65274;44.982;20.060;2023-04-24T06:07:55;13.63;;;7.63;;
76439;SDS011;65274;44.982;20.060;2023-04-24T06:10:21;8.25;;;7.38;;
76439;SDS011;65274;44.982;20.060;2023-04-24T06:12:47;10.45;;;7.65;;
76439;SDS011;65274;44.982;20.060;2023-04-24T06:15:13;7.70;;;6.20;;
76439;SDS011;65274;44.982;20.060;2023-04-24T06:17:39;11.07;;;6.65;;
76439;SDS011;65274;44.982;20.060;2023-04-24T06:20:05;15.65;;;8.30;;
76439;SDS011;65274;44.982;20.060;2023-04-24T06:22:32;7.97;;;7.18;;
76439;SDS011;65274;44.982;20.060;2023-04-24T06:24:59;8.73;;;7.15;;
76439;SDS011;65274;44.982;20.060;2023-04-24T06:27:26;11.15;;;8.35;;
76439;SDS011;65274;44.982;20.060;2023-04-24T06:29:52;9.63;;;7.38;;
76439;SDS011;65274;44.982;20.060;2023-04-24T06:32:23;10.63;;;6.33;;
76439;SDS011;65274;44.982;20.060;2023-04-24T06:34:50;13.93;;;7.13;;
76439;SDS011;65274;44.982;20.060;2023-04-24T06:37:16;11.02;;;6.63;;
76439;SDS011;65274;44.982;20.060;2023-04-24T06:39:42;10.23;;;7.07;;
76439;SDS011;65274;44.982;20.060;2023-04-24T06:42:08;8.45;;;5.75;;
76439;SDS011;65274;44.982;20.060;2023-04-24T06:44:35;8.45;;;7.28;;
76439;SDS011;65274;44.982;20.060;2023-04-24T06:47:05;14.23;;;8.18;;
76439;SDS011;65274;44.982;20.060;2023-04-24T06:49:32;11.63;;;9.35;;
76439;SDS011;65274;44.982;20.060;2023-04-24T06:51:58;10.13;;;7.85;;
76439;SDS011;65274;44.982;20.060;2023-04-24T06:54:24;7.93;;;6.88;;
76439;SDS011;65274;44.982;20.060;2023-04-24T06:56:50;12.18;;;7.65;;
76439;SDS011;65274;44.982;20.060;2023-04-24T06:59:17;11.23;;;7.75;;
76439;SDS011;65274;44.982;20.060;2023-04-24T07:01:43;9.75;;;7.90;;
76439;SDS011;65274;44.982;20.060;2023-04-24T07:04:09;11.70;;;7.40;;
76439;SDS011;65274;44.982;20.060;2023-04-24T07:06:37;8.52;;;7.63;;
76439;SDS011;65274;44.982;20.060;2023-04-24T07:09:04;12.48;;;8.23;;
76439;SDS011;65274;44.982;20.060;2023-04-24T07:11:30;8.55;;;6.93;;
76439;SDS011;65274;44.982;20.060;2023-04-24T07:13:57;11.85;;;7.25;;
76439;SDS011;65274;44.982;20.060;2023-04-24T07:16:23;11.18;;;7.88;;
76439;SDS011;65274;44.982;20.060;2023-04-24T07:18:50;12.85;;;7.63;;
76439;SDS011;65274;44.982;20.060;2023-04-24T07:21:16;10.30;;;6.85;;
76439;SDS011;65274;44.982;20.060;2023-04-24T07:23:42;8.25;;;7.45;;
76439;SDS011;65274;44.982;20.060;2023-04-24T07:26:08;9.75;;;7.45;;
76439;SDS011;65274;44.982;20.060;2023-04-24T07:28:35;7.65;;;6.85;;
76439;SDS011;65274;44.982;20.060;2023-04-24T07:31:01;11.30;;;7.10;;
76439;SDS011;65274;44.982;20.060;2023-04-24T07:33:27;9.93;;;7.88;;
76439;SDS011;65274;44.982;20.060;2023-04-24T07:35:53;9.52;;;6.88;;
76439;SDS011;65274;44.982;20.060;2023-04-24T07:38:19;13.30;;;7.93;;
76439;SDS011;65274;44.982;20.060;2023-04-24T07:40:47;10.68;;;8.35;;
76439;SDS011;65274;44.982;20.060;2023-04-24T07:43:13;11.60;;;7.30;;
76439;SDS011;65274;44.982;20.060;2023-04-24T07:45:39;11.23;;;7.65;;
76439;SDS011;65274;44.982;20.060;2023-04-24T07:48:05;15.82;;;8.40;;
76439;SDS011;65274;44.982;20.060;2023-04-24T07:50:34;13.48;;;8.50;;
76439;SDS011;65274;44.982;20.060;2023-04-24T07:53:01;14.80;;;9.53;;
76439;SDS011;65274;44.982;20.060;2023-04-24T07:55:27;14.15;;;9.00;;
76439;SDS011;65274;44.982;20.060;2023-04-24T07:57:53;16.67;;;10.35;;
76439;SDS011;65274;44.982;20.060;2023-04-24T08:00:19;14.93;;;9.48;;
76439;SDS011;65274;44.982;20.060;2023-04-24T08:02:45;13.45;;;9.00;;
76439;SDS011;65274;44.982;20.060;2023-04-24T08:05:11;15.57;;;9.68;;
76439;SDS011;65274;44.982;20.060;2023-04-24T08:07:38;16.15;;;10.15;;
76439;SDS011;65274;44.982;20.060;2023-04-24T08:10:09;11.27;;;9.68;;
76439;SDS011;65274;44.982;20.060;2023-04-24T08:12:41;12.52;;;9.70;;
76439;SDS011;65274;44.982;20.060;2023-04-24T08:15:07;18.45;;;11.27;;
76439;SDS011;65274;44.982;20.060;2023-04-24T08:17:34;14.15;;;9.10;;
76439;SDS011;65274;44.982;20.060;2023-04-24T08:20:00;14.80;;;9.25;;
76439;SDS011;65274;44.982;20.060;2023-04-24T08:22:27;12.60;;;10.75;;
76439;SDS011;65274;44.982;20.060;2023-04-24T08:24:53;19.48;;;11.63;;
76439;SDS011;65274;44.982;20.060;2023-04-24T08:27:20;14.55;;;9.57;;
76439;SDS011;65274;44.982;20.060;2023-04-24T08:29:47;16.42;;;11.55;;
76439;SDS011;65274;44.982;20.060;2023-04-24T08:32:13;11.75;;;9.50;;
76439;SDS011;65274;44.982;20.060;2023-04-24T08:34:39;25.40;;;10.77;;
76439;SDS011;65274;44.982;20.060;2023-04-24T08:37:05;11.00;;;8.57;;
76439;SDS011;65274;44.982;20.060;2023-04-24T08:39:31;20.13;;;8.70;;
76439;SDS011;65274;44.982;20.060;2023-04-24T08:41:57;12.52;;;7.30;;
76439;SDS011;65274;44.982;20.060;2023-04-24T08:44:30;12.13;;;7.82;;
76439;SDS011;65274;44.982;20.060;2023-04-24T08:46:56;9.75;;;7.10;;
76439;SDS011;65274;44.982;20.060;2023-04-24T08:49:22;9.98;;;6.75;;
76439;SDS011;65274;44.982;20.060;2023-04-24T08:51:50;8.73;;;6.60;;
76439;SDS011;65274;44.982;20.060;2023-04-24T08:54:16;11.35;;;7.57;;
76439;SDS011;65274;44.982;20.060;2023-04-24T08:56:43;10.75;;;6.93;;
76439;SDS011;65274;44.982;20.060;2023-04-24T08:59:10;13.38;;;7.90;;
76439;SDS011;65274;44.982;20.060;2023-04-24T09:01:37;14.43;;;8.10;;
76439;SDS011;65274;44.982;20.060;2023-04-24T09:04:04;8.27;;;6.10;;
76439;SDS011;65274;44.982;20.060;2023-04-24T09:06:32;7.47;;;6.25;;
76439;SDS011;65274;44.982;20.060;2023-04-24T09:09:01;12.50;;;6.65;;
76439;SDS011;65274;44.982;20.060;2023-04-24T09:11:29;11.27;;;6.53;;
76439;SDS011;65274;44.982;20.060;2023-04-24T09:13:56;6.50;;;5.80;;
76439;SDS011;65274;44.982;20.060;2023-04-24T09:16:22;7.93;;;6.38;;
76439;SDS011;65274;44.982;20.060;2023-04-24T09:18:50;8.75;;;6.07;;
76439;SDS011;65274;44.982;20.060;2023-04-24T09:21:16;14.32;;;7.13;;
76439;SDS011;65274;44.982;20.060;2023-04-24T09:23:42;8.65;;;6.07;;
76439;SDS011;65274;44.982;20.060;2023-04-24T09:26:08;7.93;;;6.47;;
76439;SDS011;65274;44.982;20.060;2023-04-24T09:28:36;11.25;;;6.22;;
76439;SDS011;65274;44.982;20.060;2023-04-24T09:31:03;8.57;;;6.00;;
76439;SDS011;65274;44.982;20.060;2023-04-24T09:33:29;6.95;;;5.93;;
76439;SDS011;65274;44.982;20.060;2023-04-24T09:35:55;8.38;;;6.55;;
76439;SDS011;65274;44.982;20.060;2023-04-24T09:38:30;9.95;;;7.68;;
76439;SDS011;65274;44.982;20.060;2023-04-24T09:40:58;15.15;;;9.40;;
76439;SDS011;65274;44.982;20.060;2023-04-24T09:43:26;12.07;;;8.82;;
76439;SDS011;65274;44.982;20.060;2023-04-24T09:45:53;13.80;;;7.88;;
76439;SDS011;65274;44.982;20.060;2023-04-24T09:48:29;10.63;;;7.45;;
76439;SDS011;65274;44.982;20.060;2023-04-24T09:50:56;12.43;;;7.35;;
76439;SDS011;65274;44.982;20.060;2023-04-24T09:53:25;9.85;;;7.55;;
76439;SDS011;65274;44.982;20.060;2023-04-24T09:55:51;8.45;;;6.78;;
76439;SDS011;65274;44.982;20.060;2023-04-24T09:58:18;11.50;;;8.07;;
76439;SDS011;65274;44.982;20.060;2023-04-24T10:00:44;10.30;;;7.60;;
76439;SDS011;65274;44.982;20.060;2023-04-24T10:03:11;9.73;;;6.97;;
76439;SDS011;65274;44.982;20.060;2023-04-24T10:05:37;10.02;;;7.80;;
76439;SDS011;65274;44.982;20.060;2023-04-24T10:08:05;9.30;;;7.38;;
76439;SDS011;65274;44.982;20.060;2023-04-24T10:10:32;10.05;;;7.22;;
76439;SDS011;65274;44.982;20.060;2023-04-24T10:12:58;11.88;;;8.80;;
76439;SDS011;65274;44.982;20.060;2023-04-24T10:15:25;8.05;;;7.00;;
76439;SDS011;65274;44.982;20.060;2023-04-24T10:17:52;7.40;;;6.55;;
76439;SDS011;65274;44.982;20.060;2023-04-24T10:20:19;8.75;;;7.10;;
76439;SDS011;65274;44.982;20.060;2023-04-24T10:22:47;9.98;;;7.50;;
76439;SDS011;65274;44.982;20.060;2023-04-24T10:25:16;10.50;;;7.45;;
76439;SDS011;65274;44.982;20.060;2023-04-24T10:27:44;8.20;;;6.15;;
76439;SDS011;65274;44.982;20.060;2023-04-24T10:30:11;9.95;;;6.72;;
76439;SDS011;65274;44.982;20.060;2023-04-24T10:32:38;8.40;;;5.95;;
76439;SDS011;65274;44.982;20.060;2023-04-24T10:35:04;7.45;;;6.45;;
76439;SDS011;65274;44.982;20.060;2023-04-24T10:37:35;9.52;;;6.50;;
76439;SDS011;65274;44.982;20.060;2023-04-24T10:40:02;8.35;;;6.57;;
76439;SDS011;65274;44.982;20.060;2023-04-24T10:42:28;6.25;;;5.47;;
76439;SDS011;65274;44.982;20.060;2023-04-24T10:44:55;8.10;;;6.13;;
76439;SDS011;65274;44.982;20.060;2023-04-24T10:47:23;7.80;;;6.25;;
76439;SDS011;65274;44.982;20.060;2023-04-24T10:49:50;9.93;;;5.47;;
76439;SDS011;65274;44.982;20.060;2023-04-24T10:52:17;7.82;;;6.50;;
76439;SDS011;65274;44.982;20.060;2023-04-24T10:54:44;5.97;;;5.27;;
76439;SDS011;65274;44.982;20.060;2023-04-24T10:59:51;11.65;;;5.70;;
76439;SDS011;65274;44.982;20.060;2023-04-24T11:02:18;5.25;;;4.63;;
76439;SDS011;65274;44.982;20.060;2023-04-24T11:04:44;5.57;;;4.30;;
76439;SDS011;65274;44.982;20.060;2023-04-24T11:07:11;8.52;;;4.80;;
76439;SDS011;65274;44.982;20.060;2023-04-24T11:09:37;8.07;;;5.68;;
76439;SDS011;65274;44.982;20.060;2023-04-24T11:17:34;5.95;;;4.82;;
76439;SDS011;65274;44.982;20.060;2023-04-24T11:20:03;8.88;;;5.85;;
76439;SDS011;65274;44.982;20.060;2023-04-24T11:22:32;7.65;;;5.40;;
76439;SDS011;65274;44.982;20.060;2023-04-24T11:25:00;4.55;;;3.70;;
76439;SDS011;65274;44.982;20.060;2023-04-24T11:27:30;5.53;;;3.70;;
76439;SDS011;65274;44.982;20.060;2023-04-24T11:30:00;4.85;;;4.32;;
76439;SDS011;65274;44.982;20.060;2023-04-24T11:34:54;9.68;;;5.20;;
76439;SDS011;65274;44.982;20.060;2023-04-24T11:37:21;5.22;;;3.60;;
76439;SDS011;65274;44.982;20.060;2023-04-24T11:39:50;4.60;;;3.45;;
76439;SDS011;65274;44.982;20.060;2023-04-24T11:42:16;3.55;;;3.00;;
76439;SDS011;65274;44.982;20.060;2023-04-24T11:44:42;8.77;;;4.85;;
76439;SDS011;65274;44.982;20.060;2023-04-24T11:47:09;5.30;;;3.90;;
76439;SDS011;65274;44.982;20.060;2023-04-24T11:49:38;4.53;;;3.42;;
76439;SDS011;65274;44.982;20.060;2023-04-24T11:52:04;4.18;;;3.60;;
76439;SDS011;65274;44.982;20.060;2023-04-24T11:54:31;7.65;;;4.25;;
76439;SDS011;65274;44.982;20.060;2023-04-24T11:56:57;9.70;;;5.93;;
76439;SDS011;65274;44.982;20.060;2023-04-24T11:59:23;7.82;;;5.30;;
76439;SDS011;65274;44.982;20.060;2023-04-24T12:01:49;7.88;;;5.00;;
76439;SDS011;65274;44.982;20.060;2023-04-24T12:04:16;7.50;;;5.45;;
76439;SDS011;65274;44.982;20.060;2023-04-24T12:06:59;7.22;;;4.53;;
76439;SDS011;65274;44.982;20.060;2023-04-24T12:09:25;5.00;;;3.70;;
76439;SDS011;65274;44.982;20.060;2023-04-24T12:11:52;7.88;;;4.80;;
76439;SDS011;65274;44.982;20.060;2023-04-24T12:14:18;5.53;;;3.50;;
76439;SDS011;65274;44.982;20.060;2023-04-24T12:16:47;6.40;;;4.50;;
76439;SDS011;65274;44.982;20.060;2023-04-24T12:19:17;5.25;;;4.47;;
76439;SDS011;65274;44.982;20.060;2023-04-24T12:21:44;4.10;;;3.22;;
76439;SDS011;65274;44.982;20.060;2023-04-24T12:24:10;5.30;;;3.45;;
76439;SDS011;65274;44.982;20.060;2023-04-24T12:26:36;4.88;;;4.40;;
76439;SDS011;65274;44.982;20.060;2023-04-24T12:29:02;7.47;;;5.10;;
76439;SDS011;65274;44.982;20.060;2023-04-24T12:31:29;5.45;;;4.07;;
76439;SDS011;65274;44.982;20.060;2023-04-24T12:33:57;5.80;;;4.13;;
76439;SDS011;65274;44.982;20.060;2023-04-24T12:36:23;6.75;;;4.50;;
76439;SDS011;65274;44.982;20.060;2023-04-24T12:38:52;6.65;;;3.90;;
76439;SDS011;65274;44.982;20.060;2023-04-24T12:41:18;5.50;;;3.88;;
76439;SDS011;65274;44.982;20.060;2023-04-24T12:43:54;6.35;;;3.70;;
76439;SDS011;65274;44.982;20.060;2023-04-24T12:46:20;5.57;;;3.97;;
76439;SDS011;65274;44.982;20.060;2023-04-24T12:48:46;6.60;;;4.10;;
76439;SDS011;65274;44.982;20.060;2023-04-24T12:51:12;5.50;;;3.72;;
76439;SDS011;65274;44.982;20.060;2023-04-24T12:53:38;6.13;;;4.00;;
76439;SDS011;65274;44.982;20.060;2023-04-24T12:56:05;5.43;;;3.53;;
76439;SDS011;65274;44.982;20.060;2023-04-24T12:58:31;8.60;;;5.10;;
76439;SDS011;65274;44.982;20.060;2023-04-24T13:00:57;9.55;;;4.30;;
76439;SDS011;65274;44.982;20.060;2023-04-24T13:03:23;9.07;;;4.47;;
76439;SDS011;65274;44.982;20.060;2023-04-24T13:05:49;5.65;;;4.00;;
76439;SDS011;65274;44.982;20.060;2023-04-24T13:08:15;5.22;;;4.05;;
76439;SDS011;65274;44.982;20.060;2023-04-24T13:10:41;7.40;;;4.38;;
76439;SDS011;65274;44.982;20.060;2023-04-24T13:13:08;3.60;;;3.30;;
76439;SDS011;65274;44.982;20.060;2023-04-24T13:15:34;5.65;;;4.68;;
76439;SDS011;65274;44.982;20.060;2023-04-24T13:18:00;7.97;;;4.90;;
76439;SDS011;65274;44.982;20.060;2023-04-24T13:20:26;4.65;;;4.03;;
76439;SDS011;65274;44.982;20.060;2023-04-24T13:22:52;5.60;;;4.28;;
76439;SDS011;65274;44.982;20.060;2023-04-24T13:25:19;7.75;;;4.88;;
76439;SDS011;65274;44.982;20.060;2023-04-24T13:27:46;6.68;;;5.38;;
76439;SDS011;65274;44.982;20.060;2023-04-24T13:30:12;5.07;;;4.15;;
76439;SDS011;65274;44.982;20.060;2023-04-24T13:32:38;7.72;;;4.13;;
76439;SDS011;65274;44.982;20.060;2023-04-24T13:35:04;9.13;;;5.43;;
76439;SDS011;65274;44.982;20.060;2023-04-24T13:37:34;7.35;;;5.90;;
76439;SDS011;65274;44.982;20.060;2023-04-24T13:40:10;10.52;;;7.00;;
76439;SDS011;65274;44.982;20.060;2023-04-24T13:42:39;7.93;;;7.13;;
76439;SDS011;65274;44.982;20.060;2023-04-24T13:45:05;8.25;;;6.82;;
76439;SDS011;65274;44.982;20.060;2023-04-24T13:47:31;9.75;;;6.90;;
76439;SDS011;65274;44.982;20.060;2023-04-24T13:49:58;9.50;;;5.20;;
76439;SDS011;65274;44.982;20.060;2023-04-24T13:52:24;12.25;;;7.80;;
76439;SDS011;65274;44.982;20.060;2023-04-24T13:54:50;10.45;;;6.80;;
76439;SDS011;65274;44.982;20.060;2023-04-24T13:57:16;9.30;;;7.47;;
76439;SDS011;65274;44.982;20.060;2023-04-24T13:59:42;13.00;;;8.38;;
76439;SDS011;65274;44.982;20.060;2023-04-24T14:02:08;10.18;;;7.68;;
76439;SDS011;65274;44.982;20.060;2023-04-24T14:04:35;8.88;;;6.65;;
76439;SDS011;65274;44.982;20.060;2023-04-24T14:07:01;12.75;;;7.97;;
76439;SDS011;65274;44.982;20.060;2023-04-24T14:09:27;13.63;;;8.50;;
76439;SDS011;65274;44.982;20.060;2023-04-24T14:11:53;11.35;;;9.30;;
76439;SDS011;65274;44.982;20.060;2023-04-24T14:14:19;12.68;;;8.73;;
76439;SDS011;65274;44.982;20.060;2023-04-24T14:16:45;8.63;;;7.40;;
76439;SDS011;65274;44.982;20.060;2023-04-24T14:19:11;14.93;;;8.80;;
76439;SDS011;65274;44.982;20.060;2023-04-24T14:21:37;8.40;;;6.93;;
76439;SDS011;65274;44.982;20.060;2023-04-24T14:24:03;5.05;;;4.18;;
76439;SDS011;65274;44.982;20.060;2023-04-24T14:26:29;6.32;;;4.63;;
76439;SDS011;65274;44.982;20.060;2023-04-24T14:28:56;6.18;;;5.25;;
76439;SDS011;65274;44.982;20.060;2023-04-24T14:31:23;4.40;;;4.00;;
76439;SDS011;65274;44.982;20.060;2023-04-24T14:33:49;4.63;;;3.50;;